Meteorological Aerodrome Report (METAR)

METAR

METAR for:NVSC (Vanua Lava/Sola Airport)
Text:NVSC 220000Z AUTO 03003KT //// // 31/22 Q1012 RMK NIL
Temperature: 31.0°C ( 88°F)
Dewpoint: 22.0°C ( 72°F) [RH = 59%]
Pressure (altimeter):29.88 inches Hg (1012.0 mb)
Winds:from the NNE (30 degrees) at 3 MPH (3 knots; 1.5 m/s)

METAR

METAR for:NVSG (Ambae/Longana Airport)
Text:NVSG 220000Z AUTO 17004KT //// // 29/21 Q1012 RMK NIL
Temperature: 29.0°C ( 84°F)
Dewpoint: 21.0°C ( 70°F) [RH = 62%]
Pressure (altimeter):29.88 inches Hg (1012.0 mb)
Winds:from the S (170 degrees) at 5 MPH (4 knots; 2.1 m/s)

METAR

METAR for:NVSS (Santo/Pekoa International Airport)
Text:NVSS 220000Z 06008KT 9999 BKN020 29/19 Q1010 RMK NIL
Temperature: 29.0°C ( 84°F)
Dewpoint: 19.0°C ( 66°F) [RH = 55%]
Pressure (altimeter):29.82 inches Hg (1010.0 mb)
Winds:from the ENE (60 degrees) at 9 MPH (8 knots; 4.1 m/s)
Visibility:6 or more sm (10+ km)
Ceiling:2000 feet AGL
Clouds: broken clouds at 2000 feet AGL

METAR

METAR for:NVSL (Malekula/Lamap Airport)
Text:NVSL 220000Z 07012KT 9999 SCT028 30/22 Q1010 RMK NIL
Temperature: 30.0°C ( 86°F)
Dewpoint: 22.0°C ( 72°F) [RH = 62%]
Pressure (altimeter):29.82 inches Hg (1010.0 mb)
Winds:from the ENE (70 degrees) at 14 MPH (12 knots; 6.2 m/s)
Visibility:6 or more sm (10+ km)
Ceiling:at least 12,000 feet AGL
Clouds: scattered clouds at 2800 feet AGL

METAR

METAR for:NVSP (Malekula/Norsup Airport) (Norsup Arpt, --, NV)
Text:NVSP (Malekula/Norsup Airport) 220000Z AUTO 08007KT //// // 29/21 Q1010 RMK NIL
Temperature: 29.0°C ( 84°F)
Dewpoint: 21.0°C ( 70°F) [RH = 62%]
Pressure (altimeter):29.82 inches Hg (1010.0 mb)
Winds:from the E (80 degrees) at 8 MPH (7 knots; 3.6 m/s)

METAR

METAR for:NVVV (Efate/Bauerfield International Airport)
Text:NVVV 220000Z 06011KT 9999 BKN025 28/18 Q1011 RMK NIL
Temperature: 28.0°C ( 82°F)
Dewpoint: 18.0°C ( 64°F) [RH = 55%]
Pressure (altimeter):29.85 inches Hg (1011.0 mb)
Winds:from the ENE (60 degrees) at 13 MPH (11 knots; 5.7 m/s)
Visibility:6 or more sm (10+ km)
Ceiling:2500 feet AGL
Clouds: broken clouds at 2500 feet AGL

METAR

METAR for:NVVW (Tanna/WhiteGrass International Airport)
Text:NVVW 220000Z AUTO 07009KT //// // 28/18 Q1012 RMK NIL
Temperature: 28.0°C ( 82°F)
Dewpoint: 18.0°C ( 64°F) [RH = 55%]
Pressure (altimeter):29.88 inches Hg (1012.0 mb)
Winds:from the ENE (70 degrees) at 10 MPH (9 knots; 4.6 m/s)

METAR

METAR for:NVVA (Aneityum/Anelcahuat Airport)
Text:NVVA 220000Z AUTO 03005KT //// // 29/18 Q1012 RMK NIL
Temperature: 29.0°C ( 84°F)
Dewpoint: 18.0°C ( 64°F) [RH = 52%]
Pressure (altimeter):29.88 inches Hg (1012.0 mb)
Winds:from the NNE (30 degrees) at 6 MPH (5 knots; 2.6 m/s)

METAR

ADDS METAR Data INFO
IDs: Format: Raw Decoded Include TAF

Data at: 0105 UTC 22 Oct 2017

NVSC 220000Z AUTO 03003KT //// // 31/22 Q1012 RMK NIL
NVSG 220000Z AUTO 17004KT //// // 29/21 Q1012 RMK NIL
NVSS 220000Z 06008KT 9999 BKN020 29/19 Q1010 RMK NIL
NVSL 220000Z 07012KT 9999 SCT028 30/22 Q1010 RMK NIL
NVSP 220000Z AUTO 08007KT //// // 29/21 Q1010 RMK NIL
NVVV 220000Z 06011KT 9999 BKN025 28/18 Q1011 RMK NIL
NVVW 220000Z AUTO 07009KT //// // 28/18 Q1012 RMK NIL
NVVA 220000Z AUTO 03005KT //// // 29/18 Q1012 RMK NIL